Česky Dansk Deutsch English Español Suomi Français Magyar Italiano Nederlands norsk Polski Português svenska Türkçe

 

Het Weer

Queen Alia Airport (Jordan)

01:00, 21 augustus 2016 (GMT)

NWNNE
WE
SWSSE
Home            
Queen Alia Airport Amman Airport Jerusalem Airport Mafraq Irbid Ben-Gurion International Airport Beer-Sheva Tel Aviv / Sde-Dov Airport H-5'Safawi Guriat Galilee / Pina Sde-Haifa Haifa Ma'An Damascus Int. Airport El Arish Ovda H-4'Irwaished Beyrouth Aeroport Aqaba Airport Eilat Taba Turaif Port Said

Om een weerknop op uw website of weblog te plaatsen, copieer onderstaande code en plak die in uw pagina. In het eerste vakje staat HTML-code, in het tweede vakje UBB-code.


Add to Google

Details

Visibility:Greater than 10000 m, 10 km, 32800 ft, 6.2 miles
Clouds:CAVOC
Temperature:20°C, 68°F
Dew-point:7°C, 45°F
Atmospheric pressure:1012 hPa, 759.1 mmHg, 29.88 inHg, 0.999 atm
Relative humidity:42.8 %
METAR:OJAI 210100Z 00000KT CAVOK 20/07 Q1012 NOSIG

Snelkoppelingen

Actuele weersinformatie van de hele wereld. Voeg locaties toe met het plus (+) symbool. Deze snelkoppelingen kunnen worden toegevoegd aan Google.

Lid van de Technetium groep

website free tracking
StatCounter NetStat W3C Validator

17-12-2017 04:48:27
astro.technetium.be money.technetium.be phote.technetium.be tafeltennistafel.technetium.be www.ligfiets.net